Observations for PRESTWICK CIV NAVY, United Kingdom (EGPK)

EGPK 192020Z 00000KT 9999 FEW030 07/04 Q1006
EGPK 191950Z 00000KT 9999 FEW030 08/05 Q1006
EGPK 191920Z 00000KT 9999 FEW030 09/05 Q1006
EGPK 191850Z 33003KT 9999 FEW024 08/05 Q1005
EGPK 191820Z 33005KT 9999 FEW024 09/05 Q1005
EGPK 191750Z 34007KT 9999 FEW024 10/05 Q1004
EGPK 191720Z 36003KT 9999 FEW024 08/04 Q1004
EGPK 191650Z 36003KT 9999 FEW024 09/04 Q1004
EGPK 191620Z 36005KT 9999 FEW025 10/05 Q1003
EGPK 191550Z 34005KT 9999 FEW025 11/05 Q1003
EGPK 191520Z 35009KT 9999 FEW025 11/05 Q1003
EGPK 191450Z 36009KT 9999 SCT024 12/06 Q1002
EGPK 191420Z 35006KT 9999 SCT026 12/06 Q1002
EGPK 191350Z 35005KT 9999 SCT029 12/06 Q1002
EGPK 191320Z 35004KT 9999 SCT027 12/06 Q1002
EGPK 191250Z 33006KT 9999 SCT027 11/06 Q1002
EGPK 191220Z 34007KT 9999 SCT028 12/07 Q1002
EGPK 191150Z 36005KT 9999 SCT028 11/06 Q1001
EGPK 191120Z 02004KT 9999 SCT027 11/07 Q1001
EGPK 191050Z 02002KT 9999 SCT025 10/07 Q1001
EGPK 191020Z 02003KT 9999 SCT025 10/07 Q1000
EGPK 190950Z 02006KT 9999 -RA FEW015 SCT027 10/07 Q1000 
EGPK 190920Z 02009KT 9999 FEW015 SCT027 10/07 Q1000 
EGPK 190850Z 01008KT 300V030 9999 -SHRA FEW014 SCT026 09/08 Q1000   
EGPK 190820Z 30002KT 9999 -SHRA SCT025 SCT036 09/08 Q0999   
EGPK 190750Z 30002KT 9999 -SHRA FEW011 SCT020 09/08 Q0999   
EGPK 190720Z 30002KT 9999 -SHRA FEW013 SCT024 09/08 Q0998   
EGPK 190650Z 00000KT 9000 -SHRA SCT025 09/08 Q0998  
EGPK 190620Z 30002KT 9000 -SHRA SCT028 09/08 Q0998  
EGPK 190550Z 30004KT 9000 -SHRA SCT020 SCT030 09/08 Q0998   
EGPK 190450Z 30005KT 9000 -SHRA SCT018 SCT025 09/08 Q0997   
EGPK 190350Z 30006KT 9000 -SHRA SCT018 SCT025 09/08 Q0996   
EGPK 190250Z 30005KT 9000 -SHRA SCT018 SCT025 09/07 Q0996   
EGPK 190150Z 19005KT 9999 -SHRA SCT018 SCT025 09/08 Q0995   
EGPK 190050Z 00000KT 9999 -SHRA SCT016 SCT028 08/07 Q0995   
EGPK 190020Z 00000KT 9999 SCT016 SCT028 08/07 Q0995 
EGPK 182350Z 00000KT 9999 FEW020 SCT030 08/07 Q0995 
EGPK 182320Z 00000KT 9999 FEW020 SCT030 08/07 Q0995 
EGPK 182250Z 00000KT 9999 SCT032 08/07 Q0995
EGPK 182220Z 00000KT 9999 SCT032 08/06 Q0995
EGPK 182150Z 00000KT 9999 SCT030 BKN038 09/06 Q0995 
EGPK 182120Z 00000KT 9999 SCT030 BKN038 09/06 Q0995 
EGPK 182050Z 00000KT 9999 SCT030 BKN038 09/07 Q0995 
EGPK 182020Z 19002KT 9999 SCT028 09/07 Q0994
EGPK 181950Z 19004KT 9999 SCT028 09/07 Q0994